Time;durP1;ratioP1;P1;durP2;ratioP2;P2;SDS_P1;SDS_P2;PMS_P1;PMS_P2;Temp;Humidity;BMP_temperature;BMP_pressure;BME280_temperature;BME280_humidity;BME280_pressure;Samples;Min_cycle;Max_cycle;Signal;HPM_P1;HPM_P2
2021/08/20 00:02:06;;;;;;;21.98;13.50;;;14.80;99.90;;;;;;5064670;28;20044;-64
2021/08/20 00:04:35;;;;;;;20.13;12.80;;;14.80;99.90;;;;;;5083594;28;20048;-65
2021/08/20 00:07:01;;;;;;;23.90;13.20;;;14.80;99.90;;;;;;5068024;28;20059;-65
2021/08/20 00:09:28;;;;;;;24.63;13.70;;;14.80;99.90;;;;;;5082562;28;20048;-65
2021/08/20 00:11:54;;;;;;;20.20;12.88;;;14.70;99.90;;;;;;5067636;28;20108;-65
2021/08/20 00:14:20;;;;;;;17.02;11.65;;;14.70;99.90;;;;;;5080921;28;20086;-64
2021/08/20 00:16:46;;;;;;;21.67;12.77;;;14.70;99.90;;;;;;5068077;28;20132;-65
2021/08/20 00:19:12;;;;;;;20.92;12.20;;;14.60;99.90;;;;;;5077328;28;20071;-64
2021/08/20 00:21:38;;;;;;;26.33;12.77;;;14.60;99.90;;;;;;5070531;28;20060;-64
2021/08/20 00:24:06;;;;;;;23.33;12.90;;;14.60;99.90;;;;;;5072550;28;20099;-65
2021/08/20 00:26:32;;;;;;;20.35;12.63;;;14.60;99.90;;;;;;5072527;28;20041;-64
2021/08/20 00:28:58;;;;;;;23.25;13.05;;;14.60;99.90;;;;;;5067310;28;20041;-65
2021/08/20 00:31:23;;;;;;;18.27;12.25;;;14.60;99.90;;;;;;5075065;28;20047;-64
2021/08/20 00:33:49;;;;;;;20.17;12.65;;;14.70;99.90;;;;;;5063008;28;20041;-66
2021/08/20 00:36:15;;;;;;;19.25;12.90;;;14.70;99.90;;;;;;5076229;28;20038;-66
2021/08/20 00:38:41;;;;;;;26.48;13.57;;;14.70;99.90;;;;;;5061892;28;20046;-65
2021/08/20 00:41:12;;;;;;;20.95;12.52;;;14.70;99.90;;;;;;5074866;28;20079;-66
2021/08/20 00:43:42;;;;;;;23.27;13.88;;;14.70;99.90;;;;;;5060640;28;20052;-66
2021/08/20 00:46:09;;;;;;;18.63;13.07;;;14.70;99.90;;;;;;5076502;28;20050;-65
2021/08/20 00:48:35;;;;;;;26.40;13.82;;;14.60;99.90;;;;;;5069831;28;20071;-64
2021/08/20 00:51:08;;;;;;;26.23;13.95;;;14.60;99.90;;;;;;5073385;28;20052;-65
2021/08/20 00:53:36;;;;;;;25.45;15.95;;;14.60;99.90;;;;;;5081424;28;20068;-64
2021/08/20 00:56:04;;;;;;;27.23;15.23;;;14.50;99.90;;;;;;5062433;28;20566;-64
2021/08/20 00:58:34;;;;;;;26.27;15.23;;;14.50;99.90;;;;;;5075956;28;20048;-65
2021/08/20 01:01:00;;;;;;;28.30;15.68;;;14.50;99.90;;;;;;5061546;28;20504;-64
2021/08/20 01:03:27;;;;;;;27.02;15.40;;;14.50;99.90;;;;;;5079433;28;20052;-64
2021/08/20 01:05:55;;;;;;;28.98;16.48;;;14.50;99.90;;;;;;5058341;28;20041;-66
2021/08/20 01:08:25;;;;;;;31.63;16.08;;;14.50;99.90;;;;;;5073217;28;20052;-66
2021/08/20 01:10:52;;;;;;;26.08;16.67;;;14.50;99.90;;;;;;5057840;28;20033;-66
2021/08/20 01:13:18;;;;;;;35.80;18.43;;;14.50;99.90;;;;;;5078641;28;20074;-66
2021/08/20 01:15:45;;;;;;;30.35;17.15;;;14.50;99.90;;;;;;5083772;28;20317;-64
2021/08/20 01:18:41;;;;;;;36.67;20.15;;;14.50;99.90;;;;;;5068231;28;20048;-64
2021/08/20 01:21:13;;;;;;;33.78;18.15;;;14.50;99.90;;;;;;5050288;28;20076;-66
2021/08/20 01:23:40;;;;;;;36.50;18.40;;;14.50;99.90;;;;;;5068699;28;20080;-65
2021/08/20 01:26:07;;;;;;;32.15;19.27;;;14.40;99.90;;;;;;5053991;28;20074;-64
2021/08/20 01:28:32;;;;;;;36.95;19.40;;;14.40;99.90;;;;;;5067384;28;20123;-66
2021/08/20 01:31:01;;;;;;;38.85;19.75;;;14.40;99.90;;;;;;5080620;28;20041;-64
2021/08/20 01:33:27;;;;;;;40.97;20.15;;;14.40;99.90;;;;;;5065652;28;20074;-64
2021/08/20 01:35:53;;;;;;;39.67;19.98;;;14.40;99.90;;;;;;5078952;28;20060;-64
2021/08/20 01:38:18;;;;;;;41.25;20.90;;;14.30;99.90;;;;;;5062990;28;20041;-64
2021/08/20 01:40:44;;;;;;;43.10;22.67;;;14.30;99.90;;;;;;5075741;28;20057;-64
2021/08/20 01:43:10;;;;;;;44.15;21.63;;;14.30;99.90;;;;;;5061253;28;20041;-64
2021/08/20 01:45:37;;;;;;;42.67;21.52;;;14.30;99.90;;;;;;5074263;28;20496;-64
2021/08/20 01:48:03;;;;;;;50.13;22.75;;;14.20;99.90;;;;;;5059401;28;20072;-64
2021/08/20 01:50:29;;;;;;;45.90;23.10;;;14.20;99.90;;;;;;5061657;28;20463;-64
2021/08/20 01:52:55;;;;;;;57.30;24.90;;;14.20;99.90;;;;;;5054584;28;20095;-64
2021/08/20 01:55:21;;;;;;;47.38;22.95;;;14.20;99.90;;;;;;5062599;28;20041;-64
2021/08/20 01:57:47;;;;;;;49.47;23.63;;;14.20;99.90;;;;;;5072232;28;20048;-64
2021/08/20 02:00:13;;;;;;;55.13;23.25;;;14.20;99.90;;;;;;5061625;28;20052;-64
2021/08/20 02:02:40;;;;;;;54.63;24.65;;;14.30;99.90;;;;;;5075319;28;20047;-64
2021/08/20 02:05:06;;;;;;;56.05;25.40;;;14.30;99.90;;;;;;5060160;28;20113;-64
2021/08/20 02:07:35;;;;;;;54.42;26.38;;;14.30;99.90;;;;;;5073122;28;20075;-65
2021/08/20 02:10:04;;;;;;;59.22;26.65;;;14.30;99.90;;;;;;5065524;28;20063;-64
2021/08/20 02:12:30;;;;;;;56.95;27.63;;;14.30;99.90;;;;;;5057626;28;20193;-64
2021/08/20 02:14:55;;;;;;;59.55;28.88;;;14.40;99.90;;;;;;5061622;28;20095;-64
2021/08/20 02:17:21;;;;;;;67.95;29.63;;;14.40;99.90;;;;;;5052722;28;20186;-65
2021/08/20 02:19:47;;;;;;;57.92;27.70;;;14.40;99.90;;;;;;5054172;28;20072;-64
2021/08/20 02:22:12;;;;;;;55.58;26.92;;;14.40;99.90;;;;;;5058208;28;20045;-66
2021/08/20 02:24:38;;;;;;;64.15;29.15;;;14.40;99.90;;;;;;5056049;28;20045;-64
2021/08/20 02:27:04;;;;;;;68.72;28.90;;;14.40;99.90;;;;;;5055214;28;20076;-64
2021/08/20 02:29:30;;;;;;;63.83;28.70;;;14.40;99.90;;;;;;5057206;28;20049;-65
2021/08/20 02:31:56;;;;;;;67.80;30.90;;;14.40;99.90;;;;;;5052065;28;20521;-64
2021/08/20 02:34:21;;;;;;;59.90;28.67;;;14.40;99.90;;;;;;5058533;28;20071;-64
2021/08/20 02:36:48;;;;;;;70.43;31.70;;;14.40;99.90;;;;;;5047758;28;20044;-64
2021/08/20 02:39:14;;;;;;;63.70;30.33;;;14.40;99.90;;;;;;5062308;28;20037;-65
2021/08/20 02:41:39;;;;;;;77.15;31.73;;;14.30;99.90;;;;;;5059703;28;20428;-64
2021/08/20 02:44:05;;;;;;;65.57;30.83;;;14.20;99.90;;;;;;5059555;28;20092;-65
2021/08/20 02:46:31;;;;;;;73.97;32.28;;;14.30;99.90;;;;;;5061276;28;20052;-65
2021/08/20 02:48:57;;;;;;;71.57;32.78;;;14.40;99.90;;;;;;5055944;28;20045;-65
2021/08/20 02:51:23;;;;;;;80.40;32.45;;;14.40;99.90;;;;;;5047947;28;20059;-64
2021/08/20 02:53:49;;;;;;;75.88;32.40;;;14.40;99.90;;;;;;5055133;28;20052;-65
2021/08/20 02:56:14;;;;;;;80.97;32.13;;;14.30;99.90;;;;;;5061216;28;20045;-65
2021/08/20 02:58:40;;;;;;;69.45;32.25;;;14.30;99.90;;;;;;5054674;28;20049;-65
2021/08/20 03:01:06;;;;;;;72.28;30.67;;;14.30;99.90;;;;;;5060426;28;20053;-65
2021/08/20 03:03:32;;;;;;;82.97;33.80;;;14.20;99.90;;;;;;5052827;28;20505;-65
2021/08/20 03:05:57;;;;;;;76.25;33.90;;;14.20;99.90;;;;;;5058741;28;20052;-65
2021/08/20 03:08:24;;;;;;;74.68;34.33;;;14.20;99.90;;;;;;5050357;28;20128;-66
2021/08/20 03:10:49;;;;;;;82.18;34.00;;;14.20;99.90;;;;;;5058340;28;20438;-64
2021/08/20 03:13:15;;;;;;;84.93;35.00;;;14.20;99.90;;;;;;5051568;28;20037;-64
2021/08/20 03:15:41;;;;;;;87.35;34.45;;;14.10;99.90;;;;;;5057812;28;20072;-66
2021/08/20 03:18:06;;;;;;;98.95;37.50;;;14.00;99.90;;;;;;5049832;28;20083;-65
2021/08/20 03:20:32;;;;;;;77.82;34.50;;;14.00;99.90;;;;;;5055455;28;20041;-65
2021/08/20 03:22:58;;;;;;;95.88;36.75;;;13.90;99.90;;;;;;5063158;28;20321;-64
2021/08/20 03:25:24;;;;;;;100.30;38.15;;;14.00;99.90;;;;;;5055421;28;20064;-65
2021/08/20 03:27:50;;;;;;;94.78;37.00;;;14.00;99.90;;;;;;5062034;28;20049;-65
2021/08/20 03:30:15;;;;;;;94.32;38.25;;;14.00;99.90;;;;;;5054219;28;20116;-65
2021/08/20 03:32:41;;;;;;;99.80;38.05;;;13.90;99.90;;;;;;5061127;28;20052;-65
2021/08/20 03:35:07;;;;;;;97.05;40.28;;;13.90;99.90;;;;;;5053721;28;20045;-65
2021/08/20 03:37:38;;;;;;;100.50;39.47;;;13.90;99.90;;;;;;5056283;28;20095;-65
2021/08/20 03:40:05;;;;;;;94.50;38.10;;;13.90;99.90;;;;;;5053547;28;20072;-65
2021/08/20 03:42:30;;;;;;;111.00;41.00;;;13.90;99.90;;;;;;5059726;28;20049;-65
2021/08/20 03:44:56;;;;;;;95.75;40.60;;;13.90;99.90;;;;;;5054786;28;20075;-65
2021/08/20 03:47:22;;;;;;;104.97;41.25;;;13.90;99.90;;;;;;5056595;28;20045;-65
2021/08/20 03:49:48;;;;;;;106.95;42.33;;;13.90;99.90;;;;;;5056114;28;20045;-65
2021/08/20 03:52:13;;;;;;;104.78;39.65;;;13.90;99.90;;;;;;5053649;28;20056;-65
2021/08/20 03:54:39;;;;;;;110.40;43.60;;;13.90;99.90;;;;;;5057344;28;20087;-65
2021/08/20 03:57:05;;;;;;;113.72;43.30;;;13.80;99.90;;;;;;5051497;28;20038;-65
2021/08/20 03:59:31;;;;;;;116.10;42.20;;;13.80;99.90;;;;;;5058315;28;20064;-65
2021/08/20 04:01:57;;;;;;;109.93;41.75;;;13.80;99.90;;;;;;5051109;28;20064;-65
2021/08/20 04:04:23;;;;;;;114.47;44.20;;;13.80;99.90;;;;;;5057939;28;20041;-65
2021/08/20 04:06:49;;;;;;;114.05;43.70;;;13.80;99.90;;;;;;5049805;28;20053;-65
2021/08/20 04:09:15;;;;;;;105.85;40.97;;;13.80;99.90;;;;;;5058722;28;20052;-65
2021/08/20 04:11:41;;;;;;;99.40;41.53;;;13.80;99.90;;;;;;5061331;28;20132;-64
2021/08/20 04:14:06;;;;;;;109.22;44.25;;;13.90;99.90;;;;;;5056213;28;20056;-64
2021/08/20 04:16:34;;;;;;;107.55;43.53;;;13.80;99.90;;;;;;5049041;28;20049;-65
2021/08/20 04:19:00;;;;;;;;;;;13.80;99.90;;;;;;5055519;28;20524;-65
2021/08/20 04:21:26;;;;;;;115.25;43.10;;;13.80;99.90;;;;;;5062485;28;19935;-65
2021/08/20 04:23:52;;;;;;;107.22;40.95;;;13.70;99.90;;;;;;5050308;28;20048;-65
2021/08/20 04:26:17;;;;;;;120.70;45.72;;;13.80;99.90;;;;;;5056663;28;20045;-64
2021/08/20 04:28:43;;;;;;;108.95;41.83;;;13.80;99.90;;;;;;5049660;28;20420;-65
2021/08/20 04:31:10;;;;;;;124.53;44.83;;;13.70;99.90;;;;;;5056025;28;20048;-64
2021/08/20 04:33:37;;;;;;;131.23;43.30;;;13.70;99.90;;;;;;5062339;28;20049;-64
2021/08/20 04:36:03;;;;;;;132.15;45.72;;;13.70;99.90;;;;;;5051770;28;20094;-65
2021/08/20 04:38:29;;;;;;;131.60;45.88;;;13.60;99.90;;;;;;5057931;28;20083;-64
2021/08/20 04:40:55;;;;;;;124.35;45.63;;;13.70;99.90;;;;;;5056127;28;20056;-65
2021/08/20 04:43:21;;;;;;;132.15;45.25;;;13.60;99.90;;;;;;5065068;28;20412;-65
2021/08/20 04:45:46;;;;;;;125.75;45.72;;;13.60;99.90;;;;;;5057314;28;20036;-64
2021/08/20 04:48:12;;;;;;;144.48;48.38;;;13.60;99.90;;;;;;5057749;28;20057;-65
2021/08/20 04:50:38;;;;;;;133.57;47.55;;;13.60;99.90;;;;;;5056188;28;20064;-64
2021/08/20 04:53:04;;;;;;;145.90;45.85;;;13.60;99.90;;;;;;5063733;28;20078;-65
2021/08/20 04:55:30;;;;;;;124.25;47.90;;;13.60;99.90;;;;;;5055787;28;20556;-64
2021/08/20 04:57:56;;;;;;;128.27;44.78;;;13.60;99.90;;;;;;5062597;28;20060;-65
2021/08/20 05:00:22;;;;;;;143.65;49.47;;;13.60;99.90;;;;;;5056049;28;20062;-65
2021/08/20 05:02:48;;;;;;;156.73;48.95;;;13.60;99.90;;;;;;5060485;28;20036;-66
2021/08/20 05:05:15;;;;;;;135.90;48.75;;;13.50;99.90;;;;;;5061015;28;20529;-65
2021/08/20 05:07:41;;;;;;;142.52;49.88;;;13.60;99.90;;;;;;5058053;28;20067;-65
2021/08/20 05:10:11;;;;;;;132.80;47.35;;;13.60;99.90;;;;;;5058288;28;20053;-64
2021/08/20 05:12:38;;;;;;;138.77;49.08;;;13.60;99.90;;;;;;5055729;28;20061;-66
2021/08/20 05:15:05;;;;;;;136.77;47.77;;;13.60;99.90;;;;;;5059035;28;20128;-65
2021/08/20 05:17:31;;;;;;;134.45;47.80;;;13.60;99.90;;;;;;5053163;28;20061;-64
2021/08/20 05:19:57;;;;;;;134.50;49.10;;;13.60;99.90;;;;;;5062228;28;20056;-65
2021/08/20 05:22:23;;;;;;;128.98;46.30;;;13.70;99.90;;;;;;5060205;28;20045;-64
2021/08/20 05:24:49;;;;;;;113.63;44.25;;;13.80;99.90;;;;;;5055488;28;20052;-65
2021/08/20 05:27:15;;;;;;;113.43;44.42;;;13.70;99.90;;;;;;5061536;28;20043;-64
2021/08/20 05:29:44;;;;;;;96.43;43.60;;;13.90;99.90;;;;;;5054660;28;20109;-65
2021/08/20 05:32:10;;;;;;;108.07;43.83;;;13.90;99.90;;;;;;5060947;28;20052;-64
2021/08/20 05:34:36;;;;;;;113.93;43.92;;;14.00;99.90;;;;;;5063085;28;20745;-64
2021/08/20 05:37:02;;;;;;;97.95;41.22;;;14.10;99.90;;;;;;5059914;28;20049;-64
2021/08/20 05:39:28;;;;;;;90.15;39.05;;;14.20;99.90;;;;;;5053145;28;20067;-64
2021/08/20 05:41:54;;;;;;;76.78;37.60;;;14.40;99.90;;;;;;5060117;28;20084;-64
2021/08/20 05:44:20;;;;;;;78.65;36.92;;;14.40;99.90;;;;;;5052274;28;20065;-64
2021/08/20 05:46:45;;;;;;;85.60;38.75;;;14.40;99.90;;;;;;5065341;28;20041;-64
2021/08/20 05:49:11;;;;;;;83.07;36.38;;;14.50;99.90;;;;;;5064348;28;20044;-64
2021/08/20 05:51:37;;;;;;;80.15;37.13;;;14.50;99.90;;;;;;5056588;28;20104;-64
2021/08/20 05:54:03;;;;;;;71.57;35.58;;;14.50;99.90;;;;;;5064198;28;20045;-65
2021/08/20 05:56:28;;;;;;;68.07;35.15;;;14.60;99.90;;;;;;5056463;28;20065;-64
2021/08/20 05:58:54;;;;;;;58.90;32.78;;;14.60;99.90;;;;;;5062870;28;20076;-64
2021/08/20 06:01:20;;;;;;;68.43;33.30;;;14.80;99.90;;;;;;5055681;28;20302;-65
2021/08/20 06:03:47;;;;;;;71.67;33.33;;;14.90;99.90;;;;;;5062186;28;20098;-65
2021/08/20 06:06:14;;;;;;;57.20;32.00;;;14.90;99.90;;;;;;5054402;28;20044;-65
2021/08/20 06:08:41;;;;;;;49.47;30.48;;;15.00;99.90;;;;;;5061704;28;20488;-65
2021/08/20 06:11:09;;;;;;;52.92;29.17;;;15.00;99.90;;;;;;5054052;28;20104;-64
2021/08/20 06:13:36;;;;;;;43.72;26.48;;;15.10;99.90;;;;;;5060798;28;20045;-64
2021/08/20 06:16:02;;;;;;;40.47;27.15;;;15.10;99.90;;;;;;5052823;28;20042;-65
2021/08/20 06:18:28;;;;;;;43.90;25.10;;;15.20;99.90;;;;;;5059455;28;20051;-64
2021/08/20 06:20:54;;;;;;;39.30;25.67;;;15.30;99.90;;;;;;5061942;28;20049;-64
2021/08/20 06:23:21;;;;;;;43.28;23.95;;;15.40;99.90;;;;;;5055471;28;20056;-65
2021/08/20 06:25:47;;;;;;;37.28;24.00;;;15.40;99.90;;;;;;5061945;28;20055;-65
2021/08/20 06:28:12;;;;;;;37.05;24.23;;;15.40;99.90;;;;;;5054231;28;20112;-64
2021/08/20 06:30:46;;;;;;;38.97;25.20;;;15.40;99.90;;;;;;5061062;28;20108;-64
2021/08/20 06:33:12;;;;;;;38.15;23.00;;;15.50;99.90;;;;;;5054495;28;20046;-64
2021/08/20 06:35:38;;;;;;;42.28;25.25;;;15.50;99.90;;;;;;5059183;28;20076;-65
2021/08/20 06:38:04;;;;;;;38.42;24.77;;;15.60;99.90;;;;;;5055905;28;20398;-64
2021/08/20 06:40:29;;;;;;;38.63;22.50;;;15.70;99.90;;;;;;5056632;28;20499;-64
2021/08/20 06:42:55;;;;;;;37.35;24.30;;;15.90;99.90;;;;;;5057153;28;20099;-64
2021/08/20 06:45:21;;;;;;;40.05;23.48;;;16.00;99.90;;;;;;5053527;28;20095;-64
2021/08/20 06:47:47;;;;;;;39.45;23.42;;;16.20;99.90;;;;;;5058044;28;20060;-64
2021/08/20 06:50:13;;;;;;;32.53;22.48;;;16.40;99.90;;;;;;5053305;28;20045;-64
2021/08/20 06:52:40;;;;;;;32.72;21.67;;;16.40;99.90;;;;;;5058871;28;20045;-64
2021/08/20 06:55:07;;;;;;;33.88;22.23;;;16.60;99.90;;;;;;5051057;28;20045;-64
2021/08/20 06:57:32;;;;;;;33.85;23.02;;;16.70;99.90;;;;;;5058215;28;20041;-64
2021/08/20 06:59:58;;;;;;;31.45;21.73;;;16.70;99.90;;;;;;5050644;28;20065;-65
2021/08/20 07:02:24;;;;;;;33.95;22.65;;;16.70;99.90;;;;;;5058361;28;21687;-64
2021/08/20 07:04:50;;;;;;;34.10;22.63;;;16.70;99.90;;;;;;5061429;28;20067;-65
2021/08/20 07:07:16;;;;;;;35.13;23.52;;;16.80;99.90;;;;;;5055750;28;20048;-66
2021/08/20 07:09:42;;;;;;;34.78;24.60;;;16.70;99.90;;;;;;5062892;28;20090;-64
2021/08/20 07:12:09;;;;;;;37.17;23.02;;;16.70;99.90;;;;;;5055629;28;20049;-65
2021/08/20 07:14:35;;;;;;;34.13;22.45;;;16.80;99.90;;;;;;5062368;28;20071;-64
2021/08/20 07:17:00;;;;;;;33.80;21.63;;;16.90;99.90;;;;;;5053878;28;20052;-64
2021/08/20 07:19:26;;;;;;;33.30;22.35;;;16.90;99.90;;;;;;5060468;28;20444;-64
2021/08/20 07:21:52;;;;;;;35.05;21.95;;;16.90;99.90;;;;;;5062691;28;20043;-64
2021/08/20 07:24:18;;;;;;;31.38;22.45;;;17.00;99.90;;;;;;5056112;28;20069;-64
2021/08/20 07:26:44;;;;;;;36.63;23.90;;;17.00;99.90;;;;;;5062792;28;20043;-64
2021/08/20 07:29:09;;;;;;;33.67;22.77;;;17.10;99.90;;;;;;5055217;28;20041;-64
2021/08/20 07:31:38;;;;;;;28.08;21.17;;;17.10;99.90;;;;;;5061687;28;20068;-65
2021/08/20 07:34:04;;;;;;;30.98;22.63;;;17.20;99.90;;;;;;5053474;28;20041;-64
2021/08/20 07:36:29;;;;;;;32.20;21.17;;;17.20;99.90;;;;;;5060638;28;20049;-64
2021/08/20 07:38:55;;;;;;;28.45;19.60;;;17.20;99.90;;;;;;5054635;28;20048;-65
2021/08/20 07:41:21;;;;;;;31.95;21.20;;;17.30;99.90;;;;;;5060251;28;20045;-65
2021/08/20 07:43:47;;;;;;;30.92;21.40;;;17.30;99.90;;;;;;5053036;28;20504;-65
2021/08/20 07:46:13;;;;;;;29.67;21.80;;;17.40;99.90;;;;;;5059370;28;20037;-65
2021/08/20 07:48:40;;;;;;;;;;;17.50;99.90;;;;;;5052368;28;20111;-64
2021/08/20 07:51:06;;;;;;;33.10;22.95;;;17.60;99.90;;;;;;5058558;28;19933;-67
2021/08/20 07:53:32;;;;;;;36.45;22.40;;;17.60;99.90;;;;;;5052841;28;20045;-67
2021/08/20 07:55:59;;;;;;;35.38;23.30;;;17.60;99.90;;;;;;5056381;28;20483;-67
2021/08/20 07:58:24;;;;;;;34.08;23.00;;;17.70;99.90;;;;;;5054041;28;20083;-67
2021/08/20 08:00:50;;;;;;;31.38;22.52;;;17.70;99.90;;;;;;5053606;28;20077;-66
2021/08/20 08:03:16;;;;;;;32.58;23.27;;;17.80;99.90;;;;;;5062510;28;20041;-65
2021/08/20 08:05:42;;;;;;;30.73;22.23;;;17.90;99.90;;;;;;5056269;28;20045;-66
2021/08/20 08:08:07;;;;;;;34.05;24.23;;;17.90;99.90;;;;;;5056961;28;20097;-65
2021/08/20 08:10:34;;;;;;;31.88;23.33;;;17.90;99.90;;;;;;5049663;28;20069;-65
2021/08/20 08:13:01;;;;;;;32.88;23.50;;;18.10;99.90;;;;;;5061259;28;20045;-65
2021/08/20 08:15:26;;;;;;;33.72;23.58;;;18.10;99.90;;;;;;5058230;28;20061;-65
2021/08/20 08:17:55;;;;;;;32.80;22.75;;;18.30;99.90;;;;;;5061747;28;20048;-65
2021/08/20 08:20:21;;;;;;;30.95;22.35;;;18.30;99.90;;;;;;5061984;28;20401;-66
2021/08/20 08:22:47;;;;;;;32.40;23.65;;;18.30;99.90;;;;;;5054996;28;20041;-66
2021/08/20 08:25:14;;;;;;;31.08;21.80;;;18.50;99.90;;;;;;5061287;28;20041;-67
2021/08/20 08:27:50;;;;;;;31.35;21.48;;;18.60;99.90;;;;;;5053951;28;20432;-66
2021/08/20 08:30:16;;;;;;;30.55;21.38;;;18.70;99.90;;;;;;5063582;28;20044;-66
2021/08/20 08:32:41;;;;;;;27.48;22.25;;;18.80;99.90;;;;;;5061824;28;20076;-67
2021/08/20 08:35:08;;;;;;;31.40;22.88;;;18.70;99.90;;;;;;5060561;28;20404;-68
2021/08/20 08:37:33;;;;;;;26.88;21.67;;;18.90;99.90;;;;;;5065394;28;20178;-66
2021/08/20 08:39:59;;;;;;;30.52;18.42;;;19.00;99.90;;;;;;5059100;28;20045;-66
2021/08/20 08:42:25;;;;;;;59.17;21.00;;;19.00;99.90;;;;;;5065716;28;20101;-67
2021/08/20 08:44:51;;;;;;;27.83;20.60;;;18.90;99.90;;;;;;5058033;28;20123;-68
2021/08/20 08:47:17;;;;;;;26.95;20.65;;;18.80;99.90;;;;;;5063829;28;20064;-66
2021/08/20 08:49:46;;;;;;;31.38;19.80;;;18.80;99.90;;;;;;5056748;28;20519;-68
2021/08/20 08:52:11;;;;;;;31.65;20.63;;;18.80;99.90;;;;;;5063066;28;20048;-68
2021/08/20 08:54:37;;;;;;;27.33;21.73;;;18.80;99.90;;;;;;5056393;28;20097;-67
2021/08/20 08:57:03;;;;;;;39.83;22.30;;;18.90;99.90;;;;;;5062260;28;20112;-67
2021/08/20 08:59:29;;;;;;;27.10;22.15;;;18.80;99.90;;;;;;5054882;28;20096;-68
2021/08/20 09:01:55;;;;;;;29.60;22.13;;;18.80;99.90;;;;;;5061684;28;20045;-67
2021/08/20 09:04:24;;;;;;;30.00;22.60;;;18.80;99.90;;;;;;5064973;28;20064;-67
2021/08/20 09:06:52;;;;;;;59.22;27.13;;;18.90;99.90;;;;;;5060274;28;20055;-66
2021/08/20 09:09:20;;;;;;;59.92;26.60;;;18.90;99.90;;;;;;5053514;28;20051;-66
2021/08/20 09:12:06;;;;;;;30.85;23.63;;;19.00;99.90;;;;;;5059872;28;20049;-65
2021/08/20 09:14:35;;;;;;;31.30;23.63;;;19.10;99.90;;;;;;5052702;28;20066;-66
2021/08/20 09:17:02;;;;;;;79.63;25.35;;;19.10;99.90;;;;;;5059171;28;20115;-66
2021/08/20 09:19:29;;;;;;;32.67;22.80;;;19.10;99.90;;;;;;5061617;28;20056;-66
2021/08/20 09:22:07;;;;;;;32.83;22.08;;;19.10;99.90;;;;;;5053959;28;20045;-65
2021/08/20 09:24:38;;;;;;;40.97;22.52;;;18.90;99.90;;;;;;5061710;28;20417;-67
2021/08/20 09:27:18;;;;;;;29.10;22.90;;;18.80;99.90;;;;;;5053191;28;20040;-66
2021/08/20 09:30:14;;;;;;;31.10;22.85;;;18.90;99.90;;;;;;5060550;28;20044;-66
2021/08/20 09:32:44;;;;;;;36.47;22.80;;;19.00;99.90;;;;;;5049448;28;20104;-68
2021/08/20 09:35:10;;;;;;;31.58;23.20;;;19.20;99.90;;;;;;5059991;28;20049;-68
2021/08/20 09:37:36;;;;;;;35.42;21.70;;;19.40;99.90;;;;;;5052844;28;20095;-67
2021/08/20 09:40:07;;;;;;;45.70;21.97;;;19.40;99.90;;;;;;5065722;28;20083;-66
2021/08/20 09:42:33;;;;;;;31.33;19.90;;;19.60;99.90;;;;;;5052767;28;20049;-66
2021/08/20 09:45:23;;;;;;;24.88;19.80;;;19.50;99.90;;;;;;5058030;28;20048;-65
2021/08/20 09:47:54;;;;;;;22.88;18.73;;;19.70;99.90;;;;;;5051200;28;20085;-65
2021/08/20 09:50:22;;;;;;;23.20;17.25;;;19.90;99.90;;;;;;5057546;28;20053;-66
2021/08/20 09:52:49;;;;;;;21.02;16.98;;;20.20;99.90;;;;;;5064092;28;20049;-65
2021/08/20 09:55:37;;;;;;;22.63;15.70;;;20.60;99.90;;;;;;5057038;28;20053;-66
2021/08/20 09:58:07;;;;;;;22.48;17.25;;;20.70;99.90;;;;;;5049605;28;20053;-66
2021/08/20 10:00:34;;;;;;;18.13;15.93;;;20.80;99.90;;;;;;5056614;28;20076;-66
2021/08/20 10:03:02;;;;;;;21.38;16.13;;;20.90;99.90;;;;;;5064295;28;20041;-66
2021/08/20 10:05:28;;;;;;;27.08;16.98;;;20.80;99.90;;;;;;5062344;28;20087;-66
2021/08/20 10:07:55;;;;;;;19.15;16.23;;;20.80;99.90;;;;;;5062096;28;20037;-66
2021/08/20 10:10:21;;;;;;;19.13;16.20;;;21.00;99.90;;;;;;5054586;28;20068;-67
2021/08/20 10:12:47;;;;;;;27.23;17.60;;;20.90;99.90;;;;;;5061645;28;20120;-66
2021/08/20 10:15:14;;;;;;;22.80;18.57;;;20.80;99.90;;;;;;5053870;28;20051;-67
2021/08/20 10:17:40;;;;;;;27.67;16.83;;;20.90;99.90;;;;;;5060245;28;20064;-66
2021/08/20 10:20:08;;;;;;;20.88;16.20;;;21.00;99.90;;;;;;5062323;28;20069;-66
2021/08/20 10:22:35;;;;;;;24.90;17.35;;;20.90;99.90;;;;;;5054848;28;20143;-66
2021/08/20 10:25:02;;;;;;;28.38;17.52;;;20.80;99.90;;;;;;5062012;28;20041;-66
2021/08/20 10:27:31;;;;;;;23.02;16.17;;;20.80;99.90;;;;;;5054266;28;20045;-66
2021/08/20 10:29:57;;;;;;;38.92;17.13;;;20.90;99.90;;;;;;5060705;28;20451;-66
2021/08/20 10:32:23;;;;;;;20.83;15.35;;;21.10;99.90;;;;;;5050684;28;20051;-66
2021/08/20 10:34:49;;;;;;;21.38;14.63;;;21.00;99.90;;;;;;5057653;28;20412;-66
2021/08/20 10:37:30;;;;;;;25.65;15.55;;;21.20;99.90;;;;;;5052495;28;20492;-65
2021/08/20 10:39:58;;;;;;;26.17;16.00;;;21.30;99.90;;;;;;5059137;28;20108;-65
2021/08/20 10:42:36;;;;;;;22.45;15.93;;;21.60;99.90;;;;;;5051831;28;20050;-65
2021/08/20 10:45:04;;;;;;;20.88;14.82;;;21.60;99.90;;;;;;5058730;28;20049;-66
2021/08/20 10:47:30;;;;;;;;;;;21.70;99.90;;;;;;5051290;28;20075;-65
2021/08/20 10:50:05;;;;;;;21.05;15.05;;;21.60;99.90;;;;;;5057950;28;19921;-65
2021/08/20 10:52:33;;;;;;;21.35;14.77;;;21.60;99.90;;;;;;5050069;28;20053;-65
2021/08/20 10:54:59;;;;;;;18.20;13.93;;;21.40;99.90;;;;;;5057362;28;20116;-65
2021/08/20 10:57:34;;;;;;;17.17;12.80;;;21.30;99.90;;;;;;5063343;28;20048;-66
2021/08/20 11:00:01;;;;;;;20.35;14.00;;;21.30;99.90;;;;;;5056099;28;20065;-66
2021/08/20 11:02:27;;;;;;;20.55;13.85;;;21.10;99.90;;;;;;5061137;28;20118;-66
2021/08/20 11:05:04;;;;;;;19.52;14.30;;;21.20;99.90;;;;;;5064322;28;20049;-64
2021/08/20 11:07:36;;;;;;;21.60;15.23;;;21.30;99.90;;;;;;5061840;28;20049;-66
2021/08/20 11:10:07;;;;;;;16.95;14.75;;;21.20;99.90;;;;;;5055122;28;20053;-64
2021/08/20 11:12:38;;;;;;;22.70;14.40;;;21.30;99.90;;;;;;5061314;28;20071;-66
2021/08/20 11:15:32;;;;;;;25.58;13.68;;;21.30;99.90;;;;;;5053857;28;20056;-65
2021/08/20 11:18:01;;;;;;;17.52;12.50;;;21.30;99.90;;;;;;5060928;28;20045;-65
2021/08/20 11:20:41;;;;;;;18.88;12.88;;;21.10;99.90;;;;;;5049575;28;20144;-65
2021/08/20 11:23:10;;;;;;;16.65;12.23;;;21.10;99.90;;;;;;5056818;28;20045;-65
2021/08/20 11:25:46;;;;;;;17.10;11.85;;;20.90;99.90;;;;;;5063206;28;20045;-65
2021/08/20 11:28:21;;;;;;;19.20;13.30;;;20.90;99.90;;;;;;5056322;28;20055;-65
2021/08/20 11:31:04;;;;;;;20.55;12.88;;;21.00;99.90;;;;;;5048383;28;20068;-65
2021/08/20 11:33:31;;;;;;;22.52;14.43;;;21.00;99.90;;;;;;5049170;28;20069;-65
2021/08/20 11:35:58;;;;;;;25.05;14.25;;;20.90;99.90;;;;;;5059559;28;20049;-65
2021/08/20 11:38:28;;;;;;;;;;;20.90;99.90;;;;;;5054989;28;20124;-64
2021/08/20 11:40:56;;;;;;;20.23;12.85;;;20.80;99.90;;;;;;5046966;28;19925;-65
2021/08/20 11:43:27;;;;;;;23.42;14.00;;;21.00;99.90;;;;;;5054105;28;20063;-66
2021/08/20 11:45:58;;;;;;;18.65;10.05;;;20.90;99.90;;;;;;5060414;28;20049;-64
2021/08/20 11:48:24;;;;;;;23.02;11.50;;;20.60;99.90;;;;;;5060581;28;20051;-64
2021/08/20 11:50:50;;;;;;;34.22;13.30;;;20.50;99.90;;;;;;5061494;28;20095;-64
2021/08/20 11:53:23;;;;;;;17.00;9.95;;;20.50;99.90;;;;;;5056371;28;20052;-65
2021/08/20 11:55:51;;;;;;;16.33;11.63;;;20.40;99.90;;;;;;5063159;28;20041;-65
2021/08/20 11:58:28;;;;;;;17.65;9.82;;;20.50;99.90;;;;;;5055708;28;20053;-65
2021/08/20 12:00:54;;;;;;;21.00;9.90;;;20.60;99.90;;;;;;5061886;28;20052;-65
2021/08/20 12:03:20;;;;;;;22.27;10.65;;;20.70;99.90;;;;;;5054048;28;20048;-66
2021/08/20 12:05:46;;;;;;;19.75;10.38;;;20.70;99.90;;;;;;5060799;28;20069;-65
2021/08/20 12:08:16;;;;;;;19.75;9.68;;;20.80;99.90;;;;;;5053984;28;20060;-65
2021/08/20 12:10:48;;;;;;;21.17;10.18;;;21.00;99.90;;;;;;5061736;28;20044;-65
2021/08/20 12:13:14;;;;;;;18.20;11.15;;;21.10;99.90;;;;;;5053467;28;20048;-65
2021/08/20 12:15:41;;;;;;;15.85;9.27;;;21.30;99.90;;;;;;5059490;28;20076;-65
2021/08/20 12:18:24;;;;;;;15.60;9.90;;;21.40;99.90;;;;;;5066097;28;20044;-65
2021/08/20 12:20:51;;;;;;;13.40;10.10;;;21.60;99.90;;;;;;5054436;28;20045;-65
2021/08/20 12:23:17;;;;;;;14.07;8.93;;;21.90;99.90;;;;;;5061814;28;20567;-65
2021/08/20 12:25:43;;;;;;;18.83;9.63;;;22.10;99.90;;;;;;5054661;28;20045;-64
2021/08/20 12:28:19;;;;;;;15.35;8.82;;;22.40;99.90;;;;;;5060836;28;20064;-64
2021/08/20 12:30:46;;;;;;;28.30;10.15;;;22.60;99.90;;;;;;5053409;28;20187;-65